createdAt,value
2019-05-16T00:01:05.179Z,11.71
2019-05-16T00:03:32.129Z,11.67
2019-05-16T00:05:59.093Z,11.54
2019-05-16T00:08:28.380Z,11.65
2019-05-16T00:10:54.921Z,11.51
2019-05-16T00:13:21.842Z,11.45
2019-05-16T00:15:48.853Z,11.45
2019-05-16T00:18:17.858Z,11.49
2019-05-16T00:20:45.015Z,11.51
2019-05-16T00:23:11.988Z,11.26
2019-05-16T00:25:39.180Z,11.17
2019-05-16T00:28:06.167Z,11.26
2019-05-16T00:30:33.115Z,11.17
2019-05-16T00:33:00.091Z,11.27
2019-05-16T00:35:28.569Z,11.24
2019-05-16T00:37:55.823Z,11.14
2019-05-16T00:40:22.790Z,11.13
2019-05-16T00:42:49.947Z,11.16
2019-05-16T00:45:18.510Z,11.11
2019-05-16T00:47:47.808Z,11.05
2019-05-16T00:50:14.529Z,10.92
2019-05-16T00:52:41.498Z,10.87
2019-05-16T00:55:08.607Z,10.72
2019-05-16T00:57:38.634Z,10.77
2019-05-16T01:00:05.607Z,10.78
2019-05-16T01:02:32.592Z,10.72
2019-05-16T01:04:59.535Z,10.66
2019-05-16T01:07:27.724Z,10.66
2019-05-16T01:09:54.828Z,10.59
2019-05-16T01:12:21.845Z,10.48
2019-05-16T01:14:48.796Z,10.46
2019-05-16T01:17:18.024Z,10.58
2019-05-16T01:19:44.641Z,10.52
2019-05-16T01:22:11.597Z,10.40
2019-05-16T01:24:41.415Z,10.35
2019-05-16T01:27:08.325Z,10.36
2019-05-16T01:29:35.344Z,10.37
2019-05-16T01:32:02.320Z,10.27
2019-05-16T01:34:29.302Z,10.13
2019-05-16T01:36:58.793Z,10.26
2019-05-16T01:39:25.121Z,10.11
2019-05-16T01:41:52.116Z,10.12
2019-05-16T01:44:19.070Z,10.10
2019-05-16T01:46:47.977Z,10.00
2019-05-16T01:49:14.864Z,10.08
2019-05-16T01:51:41.810Z,10.08
2019-05-16T01:54:08.831Z,10.05
2019-05-16T01:56:35.724Z,9.88
2019-05-16T01:59:02.716Z,9.83
2019-05-16T02:01:29.681Z,9.92
2019-05-16T02:03:58.670Z,9.91
2019-05-16T02:06:25.504Z,9.93
2019-05-16T02:08:52.477Z,10.05
2019-05-16T02:11:19.408Z,10.03
2019-05-16T02:13:48.506Z,10.13
2019-05-16T02:16:15.251Z,10.03
2019-05-16T02:18:42.331Z,9.98
2019-05-16T02:21:09.273Z,9.96
2019-05-16T02:23:38.213Z,10.12
2019-05-16T02:26:05.107Z,10.07
2019-05-16T02:28:39.717Z,10.04
2019-05-16T02:31:01.528Z,10.04
2019-05-16T02:33:31.376Z,9.91
2019-05-16T02:35:57.404Z,9.92
2019-05-16T02:38:24.364Z,9.91
2019-05-16T02:40:55.039Z,9.97
2019-05-16T02:43:25.327Z,9.75
2019-05-16T02:45:52.058Z,9.85
2019-05-16T02:48:21.291Z,9.80
2019-05-16T02:50:50.887Z,9.81
2019-05-16T02:53:16.448Z,9.98
2019-05-16T02:55:43.387Z,9.68
2019-05-16T02:58:11.486Z,9.82
2019-05-16T03:00:42.654Z,9.75
2019-05-16T03:03:07.677Z,9.86
2019-05-16T03:05:34.634Z,9.75
2019-05-16T03:08:01.918Z,9.70
2019-05-16T03:10:31.156Z,9.77
2019-05-16T03:13:00.943Z,9.77
2019-05-16T03:15:30.708Z,9.66
2019-05-16T03:18:03.765Z,9.66
2019-05-16T03:20:32.119Z,9.64
2019-05-16T03:23:02.116Z,9.66
2019-05-16T03:25:30.903Z,9.67
2019-05-16T03:27:57.088Z,9.60
2019-05-16T03:30:24.297Z,9.65
2019-05-16T03:32:54.611Z,9.58
2019-05-16T03:35:24.690Z,9.67
2019-05-16T03:37:55.660Z,9.60
2019-05-16T03:40:25.114Z,9.60
2019-05-16T03:42:52.128Z,9.57
2019-05-16T03:45:21.148Z,9.61
2019-05-16T03:47:50.998Z,9.57
2019-05-16T03:50:16.913Z,9.64
2019-05-16T03:52:44.079Z,9.58
2019-05-16T03:55:11.653Z,9.52
2019-05-16T03:57:41.438Z,9.44
2019-05-16T04:00:07.816Z,9.53
2019-05-16T04:02:34.735Z,9.66
2019-05-16T04:05:02.438Z,9.70
2019-05-16T04:07:31.683Z,9.55
2019-05-16T04:10:01.894Z,9.36
2019-05-16T04:12:27.018Z,9.46
2019-05-16T04:14:53.992Z,9.49
2019-05-16T04:17:21.280Z,9.53
2019-05-16T04:19:50.831Z,9.33
2019-05-16T04:22:17.099Z,9.61
2019-05-16T04:24:44.075Z,9.56
2019-05-16T04:27:12.072Z,9.44
2019-05-16T04:29:40.805Z,9.55
2019-05-16T04:32:10.879Z,9.47
2019-05-16T04:34:36.800Z,9.59
2019-05-16T04:37:03.772Z,9.58
2019-05-16T04:39:31.971Z,9.54
2019-05-16T04:42:01.625Z,9.49
2019-05-16T04:44:30.959Z,9.48
2019-05-16T04:46:56.995Z,9.54
2019-05-16T04:49:23.931Z,9.52
2019-05-16T04:51:51.887Z,9.62
2019-05-16T04:54:21.575Z,9.55
2019-05-16T04:56:47.876Z,9.56
2019-05-16T04:59:16.669Z,9.41
2019-05-16T05:01:43.770Z,9.39
2019-05-16T05:04:15.285Z,9.43
2019-05-16T05:06:40.615Z,9.34
2019-05-16T05:09:07.721Z,9.42
2019-05-16T05:11:34.881Z,9.43
2019-05-16T05:14:01.814Z,9.49
2019-05-16T05:16:30.599Z,9.57
2019-05-16T05:19:00.163Z,9.69
2019-05-16T05:21:26.494Z,9.62
2019-05-16T05:23:53.431Z,9.49
2019-05-16T05:26:20.490Z,9.62
2019-05-16T05:28:47.438Z,9.48
2019-05-16T05:31:14.454Z,9.62
2019-05-16T05:33:41.857Z,9.52
2019-05-16T05:36:12.034Z,9.70
2019-05-16T05:38:40.085Z,9.73
2019-05-16T05:41:06.669Z,9.93
2019-05-16T05:43:33.665Z,9.99
2019-05-16T05:46:00.992Z,10.08
2019-05-16T05:48:30.583Z,10.15
2019-05-16T05:50:56.834Z,10.02
2019-05-16T05:53:23.794Z,10.12
2019-05-16T05:55:51.580Z,10.12
2019-05-16T05:58:20.566Z,10.16
2019-05-16T06:00:47.710Z,10.11
2019-05-16T06:03:14.694Z,10.24
2019-05-16T06:05:41.623Z,10.03
2019-05-16T06:08:10.703Z,10.00
2019-05-16T06:10:37.748Z,9.91
2019-05-16T06:13:04.732Z,10.04
2019-05-16T06:15:31.777Z,9.98
2019-05-16T06:18:00.307Z,9.96
2019-05-16T06:20:27.305Z,9.93
2019-05-16T06:22:54.309Z,10.01
2019-05-16T06:25:22.648Z,10.06
2019-05-16T06:27:51.126Z,10.14
2019-05-16T06:30:20.599Z,10.11
2019-05-16T06:32:47.356Z,10.21
2019-05-16T06:35:14.412Z,10.34
2019-05-16T06:37:41.378Z,10.44
2019-05-16T06:40:10.735Z,10.39
2019-05-16T06:42:37.153Z,10.34
2019-05-16T06:45:04.874Z,10.24
2019-05-16T06:47:32.313Z,10.25
2019-05-16T06:50:00.257Z,10.24
2019-05-16T06:52:27.435Z,10.27
2019-05-16T06:54:54.450Z,10.16
2019-05-16T06:57:21.451Z,10.16
2019-05-16T06:59:50.020Z,10.26
2019-05-16T07:02:27.648Z,10.38
2019-05-16T07:04:45.914Z,10.47
2019-05-16T07:07:13.330Z,10.68
2019-05-16T07:09:41.849Z,10.92
2019-05-16T07:12:10.500Z,10.47
2019-05-16T07:14:37.555Z,10.38
2019-05-16T07:17:04.518Z,10.40
2019-05-16T07:19:31.495Z,10.32
2019-05-16T07:21:59.793Z,10.46
2019-05-16T07:24:26.893Z,10.45
2019-05-16T07:26:53.886Z,10.32
2019-05-16T07:29:22.846Z,10.36
2019-05-16T07:31:52.333Z,10.46
2019-05-16T07:34:20.666Z,10.61
2019-05-16T07:36:50.099Z,10.52
2019-05-16T07:39:16.585Z,10.56
2019-05-16T07:41:43.516Z,10.37
2019-05-16T07:44:11.096Z,10.33
2019-05-16T07:46:40.844Z,10.47
2019-05-16T07:49:06.940Z,10.49
2019-05-16T07:51:50.004Z,10.73
2019-05-16T07:54:34.550Z,10.85
2019-05-16T07:57:11.575Z,10.75
2019-05-16T07:59:29.925Z,10.91
2019-05-16T08:01:57.098Z,10.93
2019-05-16T08:04:24.093Z,11.01
2019-05-16T08:06:51.082Z,11.01
2019-05-16T08:09:18.077Z,11.12
2019-05-16T08:11:45.044Z,11.24
2019-05-16T08:14:12.020Z,11.14
2019-05-16T08:16:40.807Z,11.21
2019-05-16T08:19:10.375Z,11.34
2019-05-16T08:21:36.845Z,11.67
2019-05-16T08:24:07.150Z,11.83
2019-05-16T08:26:38.786Z,11.67
2019-05-16T08:29:02.294Z,11.46
2019-05-16T08:31:31.739Z,11.45
2019-05-16T08:34:00.983Z,11.48
2019-05-16T08:36:27.213Z,11.56
2019-05-16T08:38:54.335Z,11.70
2019-05-16T08:41:22.251Z,11.96
2019-05-16T08:43:53.421Z,11.65
2019-05-16T08:46:20.742Z,11.71
2019-05-16T08:48:47.947Z,11.65
2019-05-16T08:51:14.913Z,11.93
2019-05-16T08:53:43.615Z,11.72
2019-05-16T08:56:12.994Z,11.52
2019-05-16T08:58:40.994Z,11.49
2019-05-16T09:01:14.356Z,11.73
2019-05-16T09:03:37.022Z,12.06
2019-05-16T09:06:04.036Z,11.69
2019-05-16T09:08:30.983Z,11.70
2019-05-16T09:11:02.102Z,11.59
2019-05-16T09:13:27.960Z,11.68
2019-05-16T09:15:57.045Z,11.82
2019-05-16T09:18:28.237Z,11.79
2019-05-16T09:20:53.988Z,11.87
2019-05-16T09:23:20.911Z,11.66
2019-05-16T09:25:48.733Z,11.67
2019-05-16T09:28:16.892Z,11.58
2019-05-16T09:30:46.587Z,11.57
2019-05-16T09:33:13.002Z,11.57
2019-05-16T09:35:39.959Z,11.63
2019-05-16T09:38:07.297Z,11.52
2019-05-16T09:40:34.285Z,11.47
2019-05-16T09:43:01.230Z,11.65
2019-05-16T09:45:28.215Z,11.46
2019-05-16T09:47:57.342Z,11.53
2019-05-16T09:50:26.485Z,11.69
2019-05-16T09:52:53.261Z,11.41
2019-05-16T09:55:20.338Z,11.51
2019-05-16T09:57:47.283Z,11.50
2019-05-16T10:00:17.903Z,11.58
2019-05-16T10:02:47.521Z,11.47
2019-05-16T10:05:16.807Z,11.65
2019-05-16T10:07:43.326Z,11.67
2019-05-16T10:10:10.701Z,11.64
2019-05-16T10:12:37.678Z,11.44
2019-05-16T10:15:07.525Z,11.62
2019-05-16T10:17:36.779Z,11.61
2019-05-16T10:20:02.972Z,11.73
2019-05-16T10:22:29.931Z,11.93
2019-05-16T10:24:57.372Z,12.06
2019-05-16T10:27:26.385Z,11.91
2019-05-16T10:29:53.224Z,11.92
2019-05-16T10:32:20.208Z,11.81
2019-05-16T10:34:47.155Z,12.02
2019-05-16T10:37:14.134Z,12.04
2019-05-16T10:39:41.269Z,12.04
2019-05-16T10:42:23.171Z,11.88
2019-05-16T10:44:38.321Z,11.94
2019-05-16T10:47:07.561Z,11.97
2019-05-16T10:49:38.766Z,11.95
2019-05-16T10:52:03.701Z,12.01
2019-05-16T10:54:31.098Z,12.18
2019-05-16T10:57:00.252Z,12.04
2019-05-16T10:59:54.483Z,12.07
2019-05-16T11:01:59.665Z,12.08
2019-05-16T11:04:37.664Z,12.10
2019-05-16T11:06:57.278Z,12.08
2019-05-16T11:09:24.354Z,12.07
2019-05-16T11:11:51.351Z,12.04
2019-05-16T11:14:18.278Z,11.88
2019-05-16T11:16:47.385Z,11.83
2019-05-16T11:19:23.482Z,11.84
2019-05-16T11:21:43.071Z,11.89
2019-05-16T11:24:12.676Z,11.86
2019-05-16T11:26:38.908Z,11.94
2019-05-16T11:29:07.431Z,12.26
2019-05-16T11:31:37.141Z,11.97
2019-05-16T11:34:03.491Z,12.21
2019-05-16T11:36:30.414Z,12.35
2019-05-16T11:39:01.745Z,12.40
2019-05-16T11:41:27.482Z,12.42
2019-05-16T11:43:56.813Z,12.68
2019-05-16T11:46:23.623Z,12.97
2019-05-16T11:48:50.596Z,12.86
2019-05-16T11:51:17.603Z,12.81
2019-05-16T11:53:47.503Z,12.67
2019-05-16T11:56:13.487Z,12.52
2019-05-16T11:58:40.446Z,12.95
2019-05-16T12:01:07.771Z,12.69
2019-05-16T12:03:37.429Z,12.57
2019-05-16T12:06:05.391Z,12.38
2019-05-16T12:08:33.355Z,12.57
2019-05-16T12:11:00.291Z,12.32
2019-05-16T12:13:32.605Z,12.47
2019-05-16T12:15:56.700Z,12.60
2019-05-16T12:18:23.726Z,12.37
2019-05-16T12:20:50.652Z,12.31
2019-05-16T12:23:17.624Z,12.36
2019-05-16T12:25:44.563Z,12.12
2019-05-16T12:28:11.632Z,12.19
2019-05-16T12:30:40.364Z,12.43
2019-05-16T12:33:07.683Z,12.42
2019-05-16T12:35:36.990Z,12.56
2019-05-16T12:38:03.497Z,12.47
2019-05-16T12:40:30.433Z,12.17
2019-05-16T12:42:57.502Z,12.24
2019-05-16T12:45:27.283Z,12.05
2019-05-16T12:47:53.585Z,11.99
2019-05-16T12:50:20.613Z,11.80
2019-05-16T12:52:47.660Z,11.78
2019-05-16T12:55:16.568Z,12.07
2019-05-16T12:57:43.642Z,11.77
2019-05-16T13:00:14.885Z,11.98
2019-05-16T13:02:41.166Z,12.08
2019-05-16T13:05:08.374Z,12.19
2019-05-16T13:07:37.498Z,12.28
2019-05-16T13:10:06.594Z,12.25
2019-05-16T13:12:34.146Z,12.35
2019-05-16T13:15:01.803Z,12.59
2019-05-16T13:17:28.843Z,12.47
2019-05-16T13:19:57.539Z,12.34
2019-05-16T13:22:27.362Z,12.26
2019-05-16T13:24:57.260Z,12.22
2019-05-16T13:27:23.912Z,12.06
2019-05-16T13:29:50.876Z,12.08
2019-05-16T13:32:17.868Z,11.72
2019-05-16T13:34:44.883Z,11.59
2019-05-16T13:37:11.813Z,11.64
2019-05-16T13:39:39.124Z,11.43
2019-05-16T13:42:07.983Z,11.35
2019-05-16T13:44:37.578Z,11.27
2019-05-16T13:47:04.110Z,11.09
2019-05-16T13:49:31.254Z,11.05
2019-05-16T13:51:58.183Z,10.93
2019-05-16T13:54:26.931Z,10.96
2019-05-16T13:56:53.999Z,10.92
2019-05-16T13:59:20.965Z,10.97
2019-05-16T14:01:47.902Z,10.85
2019-05-16T14:04:17.092Z,10.88
2019-05-16T14:06:43.696Z,10.98
2019-05-16T14:09:10.632Z,10.86
2019-05-16T14:11:37.593Z,10.72
2019-05-16T14:14:05.088Z,10.91
2019-05-16T14:16:32.128Z,10.76
2019-05-16T14:18:59.141Z,10.76
2019-05-16T14:21:26.124Z,10.78
2019-05-16T14:23:53.787Z,10.66
2019-05-16T14:26:20.840Z,10.74
2019-05-16T14:28:48.828Z,10.62
2019-05-16T14:31:17.403Z,10.73
2019-05-16T14:33:44.542Z,10.76
2019-05-16T14:36:11.517Z,10.76
2019-05-16T14:38:38.447Z,10.84
2019-05-16T14:41:07.773Z,10.59
2019-05-16T14:43:36.350Z,10.61
2019-05-16T14:46:06.424Z,10.74
2019-05-16T14:48:32.009Z,10.60
2019-05-16T14:50:58.971Z,10.67
2019-05-16T14:53:28.433Z,10.61
2019-05-16T14:55:57.466Z,10.61
2019-05-16T14:58:23.628Z,10.68
2019-05-16T15:00:50.578Z,10.64
2019-05-16T15:03:18.063Z,10.81
2019-05-16T15:05:47.810Z,10.74
2019-05-16T15:08:14.158Z,10.83
2019-05-16T15:10:41.636Z,10.73
2019-05-16T15:13:08.553Z,11.00
2019-05-16T15:15:37.794Z,10.73
2019-05-16T15:18:07.750Z,10.71
2019-05-16T15:20:33.300Z,10.82
2019-05-16T15:23:00.395Z,10.64
2019-05-16T15:25:27.416Z,10.39
2019-05-16T15:27:54.335Z,10.56
2019-05-16T15:30:21.595Z,10.56
2019-05-16T15:32:48.668Z,10.39
2019-05-16T15:35:18.043Z,10.20
2019-05-16T15:37:47.923Z,10.21
2019-05-16T15:40:14.365Z,10.17
2019-05-16T15:42:41.396Z,10.27
2019-05-16T15:45:09.167Z,10.33
2019-05-16T15:47:37.579Z,10.44
2019-05-16T15:50:07.991Z,10.36
2019-05-16T15:52:38.235Z,10.27
2019-05-16T15:55:09.564Z,10.33
2019-05-16T15:57:33.837Z,10.55
2019-05-16T16:00:00.783Z,10.32
2019-05-16T16:02:29.133Z,10.40
2019-05-16T16:04:57.564Z,10.48
2019-05-16T16:07:27.131Z,10.59
2019-05-16T16:09:54.580Z,10.76
2019-05-16T16:12:22.153Z,10.30
2019-05-16T16:14:49.574Z,10.38
2019-05-16T16:17:18.623Z,10.36
2019-05-16T16:19:46.954Z,10.34
2019-05-16T16:22:14.123Z,10.39
2019-05-16T16:24:41.075Z,10.40
2019-05-16T16:27:08.045Z,10.50
2019-05-16T16:29:36.742Z,10.47
2019-05-16T16:32:06.326Z,10.09
2019-05-16T16:34:32.962Z,9.89
2019-05-16T16:36:59.926Z,9.83
2019-05-16T16:39:26.967Z,9.83
2019-05-16T16:41:56.752Z,9.78
2019-05-16T16:44:22.931Z,9.73
2019-05-16T16:46:49.889Z,9.76
2019-05-16T16:49:17.449Z,9.82
2019-05-16T16:51:44.509Z,10.06
2019-05-16T16:54:11.434Z,9.82
2019-05-16T16:56:38.382Z,10.11
2019-05-16T16:59:06.438Z,10.01
2019-05-16T17:01:33.507Z,9.85
2019-05-16T17:04:01.104Z,10.08
2019-05-16T17:06:28.041Z,10.28
2019-05-16T17:08:56.825Z,10.20
2019-05-16T17:11:26.362Z,10.00
2019-05-16T17:13:52.771Z,10.33
2019-05-16T17:16:25.739Z,10.45
2019-05-16T17:18:48.563Z,10.34
2019-05-16T17:21:17.111Z,10.46
2019-05-16T17:23:46.417Z,10.37
2019-05-16T17:26:13.064Z,10.27
2019-05-16T17:28:40.037Z,10.48
2019-05-16T17:31:07.370Z,10.43
2019-05-16T17:33:37.709Z,10.36
2019-05-16T17:36:03.308Z,10.40
2019-05-16T17:38:30.246Z,10.24
2019-05-16T17:40:57.173Z,10.36
2019-05-16T17:43:24.138Z,10.38
2019-05-16T17:45:51.083Z,10.36
2019-05-16T17:48:18.065Z,10.11
2019-05-16T17:50:46.693Z,10.11
2019-05-16T17:53:13.809Z,10.45
2019-05-16T17:55:40.738Z,10.40
2019-05-16T17:58:08.907Z,10.29
2019-05-16T18:00:36.131Z,10.20
2019-05-16T18:03:03.375Z,10.26
2019-05-16T18:05:30.390Z,10.23
2019-05-16T18:07:57.365Z,10.31
2019-05-16T18:10:26.950Z,10.36
2019-05-16T18:12:53.770Z,10.31
2019-05-16T18:15:21.308Z,10.48
2019-05-16T18:17:48.381Z,10.33
2019-05-16T18:20:15.751Z,10.28
2019-05-16T18:22:42.982Z,10.42
2019-05-16T18:25:09.979Z,10.13
2019-05-16T18:27:37.561Z,10.09
2019-05-16T18:30:05.197Z,10.03
2019-05-16T18:32:32.143Z,9.94
2019-05-16T18:34:59.121Z,9.78
2019-05-16T18:37:26.620Z,9.84
2019-05-16T18:39:53.645Z,9.79
2019-05-16T18:42:20.596Z,10.01
2019-05-16T18:44:47.596Z,9.90
2019-05-16T18:47:14.558Z,10.03
2019-05-16T18:49:41.511Z,9.86
2019-05-16T18:52:08.426Z,10.08
2019-05-16T18:54:37.654Z,10.00
2019-05-16T18:57:06.803Z,10.01
2019-05-16T18:59:33.198Z,10.11
2019-05-16T19:02:00.131Z,10.25
2019-05-16T19:04:27.166Z,10.17
2019-05-16T19:06:54.133Z,10.21
2019-05-16T19:09:21.100Z,10.25
2019-05-16T19:11:48.042Z,10.16
2019-05-16T19:14:16.971Z,10.07
2019-05-16T19:16:43.845Z,9.99
2019-05-16T19:19:10.776Z,10.00
2019-05-16T19:21:37.764Z,10.03
2019-05-16T19:24:06.848Z,9.96
2019-05-16T19:26:33.576Z,10.02
2019-05-16T19:29:00.562Z,10.04
2019-05-16T19:31:27.540Z,9.98
2019-05-16T19:33:56.560Z,9.94
2019-05-16T19:36:27.018Z,10.05
2019-05-16T19:38:53.911Z,10.04
2019-05-16T19:41:20.892Z,9.97
2019-05-16T19:43:47.911Z,10.04
2019-05-16T19:46:14.929Z,9.96
2019-05-16T19:48:41.867Z,10.13
2019-05-16T19:51:08.831Z,10.04
2019-05-16T19:53:36.501Z,9.89
2019-05-16T19:56:07.018Z,10.09
2019-05-16T19:58:33.575Z,10.04
2019-05-16T20:01:02.593Z,10.11
2019-05-16T20:03:29.518Z,9.99
2019-05-16T20:05:57.000Z,9.90
2019-05-16T20:08:24.014Z,9.92
2019-05-16T20:10:50.996Z,9.89
2019-05-16T20:13:20.490Z,10.04
2019-05-16T20:15:47.466Z,9.96
2019-05-16T20:18:18.230Z,10.04
2019-05-16T20:20:43.342Z,9.91
2019-05-16T20:23:10.272Z,9.86
2019-05-16T20:25:37.228Z,9.96
2019-05-16T20:28:08.765Z,10.03
2019-05-16T20:30:33.108Z,9.93
2019-05-16T20:33:00.085Z,9.93
2019-05-16T20:35:27.038Z,9.97
2019-05-16T20:37:54.145Z,10.05
2019-05-16T20:40:21.090Z,9.92
2019-05-16T20:42:48.267Z,9.95
2019-05-16T20:45:16.900Z,10.00
2019-05-16T20:47:43.991Z,9.94
2019-05-16T20:50:11.732Z,9.84
2019-05-16T20:52:38.785Z,9.79
2019-05-16T20:55:07.173Z,9.89
2019-05-16T20:57:34.484Z,9.87
2019-05-16T21:00:01.400Z,10.01
2019-05-16T21:02:28.364Z,9.96
2019-05-16T21:04:57.092Z,9.98
2019-05-16T21:07:26.362Z,9.97
2019-05-16T21:09:52.938Z,9.99
2019-05-16T21:12:22.193Z,9.84
2019-05-16T21:14:49.134Z,9.77
2019-05-16T21:17:17.418Z,9.84
2019-05-16T21:19:44.501Z,9.87
2019-05-16T21:22:11.444Z,9.79
2019-05-16T21:24:38.359Z,9.76
2019-05-16T21:27:05.306Z,9.94
2019-05-16T21:29:32.255Z,9.91
2019-05-16T21:31:59.237Z,9.93
2019-05-16T21:34:27.206Z,9.89
2019-05-16T21:36:54.410Z,9.88
2019-05-16T21:39:21.465Z,9.75
2019-05-16T21:41:48.507Z,9.75
2019-05-16T21:44:17.057Z,9.70
2019-05-16T21:46:44.224Z,9.75
2019-05-16T21:49:11.164Z,9.77
2019-05-16T21:51:38.094Z,9.73
2019-05-16T21:54:07.010Z,9.78
2019-05-16T21:56:33.883Z,9.83
2019-05-16T21:59:01.080Z,9.82
2019-05-16T22:01:28.097Z,9.69
2019-05-16T22:03:56.715Z,9.80
2019-05-16T22:06:23.775Z,9.86
2019-05-16T22:08:50.727Z,9.78
2019-05-16T22:11:17.661Z,9.70
2019-05-16T22:13:46.447Z,9.79
2019-05-16T22:16:13.560Z,9.81
2019-05-16T22:18:40.523Z,9.79
2019-05-16T22:21:07.869Z,9.89
2019-05-16T22:23:37.233Z,9.82
2019-05-16T22:26:03.654Z,9.89
2019-05-16T22:28:30.618Z,9.78
2019-05-16T22:30:58.539Z,9.80
2019-05-16T22:33:26.761Z,9.94
2019-05-16T22:35:53.758Z,9.83
2019-05-16T22:38:20.795Z,9.82
2019-05-16T22:40:47.733Z,9.85
2019-05-16T22:43:17.215Z,9.77
2019-05-16T22:45:43.571Z,9.78
2019-05-16T22:48:10.520Z,9.70
2019-05-16T22:50:37.448Z,9.73
2019-05-16T22:53:06.439Z,9.75
2019-05-16T22:55:33.308Z,9.85
2019-05-16T22:58:00.259Z,9.90
2019-05-16T23:00:29.466Z,9.77
2019-05-16T23:02:56.729Z,9.77
2019-05-16T23:05:23.645Z,9.76
2019-05-16T23:08:02.099Z,9.87
2019-05-16T23:10:19.440Z,9.85
2019-05-16T23:12:46.382Z,9.79
2019-05-16T23:15:13.936Z,9.92
2019-05-16T23:17:40.853Z,9.91
2019-05-16T23:20:08.106Z,9.83
2019-05-16T23:22:36.709Z,9.75
2019-05-16T23:25:06.372Z,9.80
2019-05-16T23:27:32.720Z,9.70
2019-05-16T23:29:59.665Z,9.81
2019-05-16T23:32:27.113Z,9.72
2019-05-16T23:34:54.147Z,9.81
2019-05-16T23:37:21.077Z,9.70
2019-05-16T23:39:48.030Z,9.74
2019-05-16T23:42:14.973Z,9.77
